sensor_id;sensor_type;location;lat;lon;timestamp;temperature;humidity
42755;DHT22;28407;51.830;5.684;2022-07-23T00:01:47;20.80;64.60
42755;DHT22;28407;51.830;5.684;2022-07-23T00:03:48;20.70;64.60
42755;DHT22;28407;51.830;5.684;2022-07-23T00:05:49;20.70;64.60
42755;DHT22;28407;51.830;5.684;2022-07-23T00:07:49;20.70;64.60
42755;DHT22;28407;51.830;5.684;2022-07-23T00:09:50;20.70;64.70
42755;DHT22;28407;51.830;5.684;2022-07-23T00:11:50;20.60;64.60
42755;DHT22;28407;51.830;5.684;2022-07-23T00:13:51;20.60;64.70
42755;DHT22;28407;51.830;5.684;2022-07-23T00:15:52;20.60;64.70
42755;DHT22;28407;51.830;5.684;2022-07-23T00:17:53;20.50;64.60
42755;DHT22;28407;51.830;5.684;2022-07-23T00:19:53;20.50;64.70
42755;DHT22;28407;51.830;5.684;2022-07-23T00:21:54;20.50;65.30
42755;DHT22;28407;51.830;5.684;2022-07-23T00:23:55;20.50;64.70
42755;DHT22;28407;51.830;5.684;2022-07-23T00:25:56;20.50;64.70
42755;DHT22;28407;51.830;5.684;2022-07-23T00:28:00;20.50;64.70
42755;DHT22;28407;51.830;5.684;2022-07-23T00:30:02;20.40;64.70
42755;DHT22;28407;51.830;5.684;2022-07-23T00:32:02;20.40;64.70
42755;DHT22;28407;51.830;5.684;2022-07-23T00:34:03;20.40;64.80
42755;DHT22;28407;51.830;5.684;2022-07-23T00:36:04;20.40;64.80
42755;DHT22;28407;51.830;5.684;2022-07-23T00:38:05;20.40;64.80
42755;DHT22;28407;51.830;5.684;2022-07-23T00:40:06;20.30;64.80
42755;DHT22;28407;51.830;5.684;2022-07-23T00:42:07;20.30;64.80
42755;DHT22;28407;51.830;5.684;2022-07-23T00:44:21;20.30;64.90
42755;DHT22;28407;51.830;5.684;2022-07-23T00:46:22;20.30;64.90
42755;DHT22;28407;51.830;5.684;2022-07-23T00:48:23;20.30;64.90
42755;DHT22;28407;51.830;5.684;2022-07-23T00:50:24;20.20;64.80
42755;DHT22;28407;51.830;5.684;2022-07-23T00:52:25;20.30;64.80
42755;DHT22;28407;51.830;5.684;2022-07-23T00:54:26;20.20;64.70
42755;DHT22;28407;51.830;5.684;2022-07-23T00:56:27;20.20;64.70
42755;DHT22;28407;51.830;5.684;2022-07-23T00:58:28;20.20;64.70
42755;DHT22;28407;51.830;5.684;2022-07-23T01:00:29;20.20;64.80
42755;DHT22;28407;51.830;5.684;2022-07-23T01:02:30;20.20;64.90
42755;DHT22;28407;51.830;5.684;2022-07-23T01:04:31;20.10;64.90
42755;DHT22;28407;51.830;5.684;2022-07-23T01:06:35;20.10;64.80
42755;DHT22;28407;51.830;5.684;2022-07-23T01:08:36;20.10;64.80
42755;DHT22;28407;51.830;5.684;2022-07-23T01:10:37;20.10;64.70
42755;DHT22;28407;51.830;5.684;2022-07-23T01:12:38;20.10;64.80
42755;DHT22;28407;51.830;5.684;2022-07-23T01:14:39;20.10;64.80
42755;DHT22;28407;51.830;5.684;2022-07-23T01:16:42;20.10;64.80
42755;DHT22;28407;51.830;5.684;2022-07-23T01:18:43;20.00;64.80
42755;DHT22;28407;51.830;5.684;2022-07-23T01:20:43;20.00;64.90
42755;DHT22;28407;51.830;5.684;2022-07-23T01:22:44;20.00;64.80
42755;DHT22;28407;51.830;5.684;2022-07-23T01:24:46;20.00;64.80
42755;DHT22;28407;51.830;5.684;2022-07-23T01:26:47;20.00;64.80
42755;DHT22;28407;51.830;5.684;2022-07-23T01:28:48;20.00;64.80
42755;DHT22;28407;51.830;5.684;2022-07-23T01:30:49;20.00;64.80
42755;DHT22;28407;51.830;5.684;2022-07-23T01:32:50;20.00;64.90
42755;DHT22;28407;51.830;5.684;2022-07-23T01:34:51;20.00;64.90
42755;DHT22;28407;51.830;5.684;2022-07-23T01:36:51;19.90;65.50
42755;DHT22;28407;51.830;5.684;2022-07-23T01:38:52;19.90;64.90
42755;DHT22;28407;51.830;5.684;2022-07-23T01:40:53;19.80;65.00
42755;DHT22;28407;51.830;5.684;2022-07-23T01:42:54;19.80;65.00
42755;DHT22;28407;51.830;5.684;2022-07-23T01:44:54;19.80;65.20
42755;DHT22;28407;51.830;5.684;2022-07-23T01:46:56;19.70;65.30
42755;DHT22;28407;51.830;5.684;2022-07-23T01:48:57;19.70;65.30
42755;DHT22;28407;51.830;5.684;2022-07-23T01:51:21;19.80;65.40
42755;DHT22;28407;51.830;5.684;2022-07-23T01:53:31;19.70;65.30
42755;DHT22;28407;51.830;5.684;2022-07-23T01:55:31;19.70;65.30
42755;DHT22;28407;51.830;5.684;2022-07-23T01:57:32;19.70;65.20
42755;DHT22;28407;51.830;5.684;2022-07-23T01:59:34;19.70;65.10
42755;DHT22;28407;51.830;5.684;2022-07-23T02:01:35;19.70;65.10
42755;DHT22;28407;51.830;5.684;2022-07-23T02:03:37;19.70;65.10
42755;DHT22;28407;51.830;5.684;2022-07-23T02:05:38;19.70;65.00
42755;DHT22;28407;51.830;5.684;2022-07-23T02:07:38;19.70;65.00
42755;DHT22;28407;51.830;5.684;2022-07-23T02:09:39;19.60;65.00
42755;DHT22;28407;51.830;5.684;2022-07-23T02:11:40;19.70;65.10
42755;DHT22;28407;51.830;5.684;2022-07-23T02:13:41;19.60;65.10
42755;DHT22;28407;51.830;5.684;2022-07-23T02:15:41;19.60;65.20
42755;DHT22;28407;51.830;5.684;2022-07-23T02:17:42;19.50;65.20
42755;DHT22;28407;51.830;5.684;2022-07-23T02:19:43;19.50;65.30
42755;DHT22;28407;51.830;5.684;2022-07-23T02:21:43;19.40;65.40
42755;DHT22;28407;51.830;5.684;2022-07-23T02:23:44;19.40;65.50
42755;DHT22;28407;51.830;5.684;2022-07-23T02:25:45;19.40;65.60
42755;DHT22;28407;51.830;5.684;2022-07-23T02:27:45;19.40;65.60
42755;DHT22;28407;51.830;5.684;2022-07-23T02:29:46;19.40;65.60
42755;DHT22;28407;51.830;5.684;2022-07-23T02:31:48;19.40;65.60
42755;DHT22;28407;51.830;5.684;2022-07-23T02:33:48;19.40;65.60
42755;DHT22;28407;51.830;5.684;2022-07-23T02:35:51;19.40;65.60
42755;DHT22;28407;51.830;5.684;2022-07-23T02:37:53;19.40;65.60
42755;DHT22;28407;51.830;5.684;2022-07-23T02:39:55;19.40;65.70
42755;DHT22;28407;51.830;5.684;2022-07-23T02:41:56;19.40;65.70
42755;DHT22;28407;51.830;5.684;2022-07-23T02:43:57;19.40;65.70
42755;DHT22;28407;51.830;5.684;2022-07-23T02:45:57;19.40;65.60
42755;DHT22;28407;51.830;5.684;2022-07-23T02:47:58;19.40;65.60
42755;DHT22;28407;51.830;5.684;2022-07-23T02:50:00;19.40;65.60
42755;DHT22;28407;51.830;5.684;2022-07-23T02:52:02;19.40;65.60
42755;DHT22;28407;51.830;5.684;2022-07-23T02:54:03;19.30;65.60
42755;DHT22;28407;51.830;5.684;2022-07-23T02:56:04;19.30;65.70
42755;DHT22;28407;51.830;5.684;2022-07-23T02:58:05;19.30;65.80
42755;DHT22;28407;51.830;5.684;2022-07-23T03:00:06;19.30;65.80
42755;DHT22;28407;51.830;5.684;2022-07-23T03:02:07;19.20;65.90
42755;DHT22;28407;51.830;5.684;2022-07-23T03:04:08;19.20;66.00
42755;DHT22;28407;51.830;5.684;2022-07-23T03:06:08;19.20;66.00
42755;DHT22;28407;51.830;5.684;2022-07-23T03:08:09;19.20;66.00
42755;DHT22;28407;51.830;5.684;2022-07-23T03:10:13;19.20;66.00
42755;DHT22;28407;51.830;5.684;2022-07-23T03:12:13;19.20;66.00
42755;DHT22;28407;51.830;5.684;2022-07-23T03:14:14;19.20;66.00
42755;DHT22;28407;51.830;5.684;2022-07-23T03:16:16;19.20;66.00
42755;DHT22;28407;51.830;5.684;2022-07-23T03:18:17;19.20;65.90
42755;DHT22;28407;51.830;5.684;2022-07-23T03:20:18;19.20;65.80
42755;DHT22;28407;51.830;5.684;2022-07-23T03:22:18;19.20;65.80
42755;DHT22;28407;51.830;5.684;2022-07-23T03:24:19;19.10;65.80
42755;DHT22;28407;51.830;5.684;2022-07-23T03:26:19;19.10;65.90
42755;DHT22;28407;51.830;5.684;2022-07-23T03:28:20;19.10;66.00
42755;DHT22;28407;51.830;5.684;2022-07-23T03:30:21;19.10;66.10
42755;DHT22;28407;51.830;5.684;2022-07-23T03:32:23;19.00;66.10
42755;DHT22;28407;51.830;5.684;2022-07-23T03:34:24;19.00;66.10
42755;DHT22;28407;51.830;5.684;2022-07-23T03:36:25;19.00;66.10
42755;DHT22;28407;51.830;5.684;2022-07-23T03:38:28;19.00;66.20
42755;DHT22;28407;51.830;5.684;2022-07-23T03:40:29;18.90;66.20
42755;DHT22;28407;51.830;5.684;2022-07-23T03:42:31;18.90;66.30
42755;DHT22;28407;51.830;5.684;2022-07-23T03:44:32;18.80;66.30
42755;DHT22;28407;51.830;5.684;2022-07-23T03:46:32;18.80;66.40
42755;DHT22;28407;51.830;5.684;2022-07-23T03:48:33;18.80;66.50
42755;DHT22;28407;51.830;5.684;2022-07-23T03:50:33;18.70;66.50
42755;DHT22;28407;51.830;5.684;2022-07-23T03:52:35;18.70;66.50
42755;DHT22;28407;51.830;5.684;2022-07-23T03:54:35;18.70;66.60
42755;DHT22;28407;51.830;5.684;2022-07-23T03:56:36;18.60;66.60
42755;DHT22;28407;51.830;5.684;2022-07-23T03:58:37;18.60;66.60
42755;DHT22;28407;51.830;5.684;2022-07-23T04:00:37;18.60;66.70
42755;DHT22;28407;51.830;5.684;2022-07-23T04:02:39;18.60;66.60
42755;DHT22;28407;51.830;5.684;2022-07-23T04:04:40;18.60;66.60
42755;DHT22;28407;51.830;5.684;2022-07-23T04:06:41;18.60;66.60
42755;DHT22;28407;51.830;5.684;2022-07-23T04:08:42;18.60;66.60
42755;DHT22;28407;51.830;5.684;2022-07-23T04:10:42;18.60;66.40
42755;DHT22;28407;51.830;5.684;2022-07-23T04:12:43;18.70;66.40
42755;DHT22;28407;51.830;5.684;2022-07-23T04:14:44;18.70;66.30
42755;DHT22;28407;51.830;5.684;2022-07-23T04:16:45;18.70;66.30
42755;DHT22;28407;51.830;5.684;2022-07-23T04:18:46;18.70;66.20
42755;DHT22;28407;51.830;5.684;2022-07-23T04:20:51;18.70;66.20
42755;DHT22;28407;51.830;5.684;2022-07-23T04:22:52;18.70;66.20
42755;DHT22;28407;51.830;5.684;2022-07-23T04:24:52;18.70;66.20
42755;DHT22;28407;51.830;5.684;2022-07-23T04:26:53;18.70;66.20
42755;DHT22;28407;51.830;5.684;2022-07-23T04:28:54;18.70;66.20
42755;DHT22;28407;51.830;5.684;2022-07-23T04:30:58;18.70;66.20
42755;DHT22;28407;51.830;5.684;2022-07-23T04:32:59;18.70;66.20
42755;DHT22;28407;51.830;5.684;2022-07-23T04:35:02;18.70;66.20
42755;DHT22;28407;51.830;5.684;2022-07-23T04:37:02;18.80;66.30
42755;DHT22;28407;51.830;5.684;2022-07-23T04:39:06;18.80;66.40
42755;DHT22;28407;51.830;5.684;2022-07-23T04:41:07;18.70;67.00
42755;DHT22;28407;51.830;5.684;2022-07-23T04:43:07;18.70;66.40
42755;DHT22;28407;51.830;5.684;2022-07-23T04:45:14;18.70;66.60
42755;DHT22;28407;51.830;5.684;2022-07-23T04:47:16;18.60;66.60
42755;DHT22;28407;51.830;5.684;2022-07-23T04:49:18;18.60;66.70
42755;DHT22;28407;51.830;5.684;2022-07-23T04:51:19;18.60;66.80
42755;DHT22;28407;51.830;5.684;2022-07-23T04:53:20;18.70;66.80
42755;DHT22;28407;51.830;5.684;2022-07-23T04:55:22;18.70;66.80
42755;DHT22;28407;51.830;5.684;2022-07-23T04:57:23;18.70;66.80
42755;DHT22;28407;51.830;5.684;2022-07-23T04:59:23;18.70;67.40
42755;DHT22;28407;51.830;5.684;2022-07-23T05:01:31;18.70;66.80
42755;DHT22;28407;51.830;5.684;2022-07-23T05:03:32;18.70;66.90
42755;DHT22;28407;51.830;5.684;2022-07-23T05:05:33;18.70;67.00
42755;DHT22;28407;51.830;5.684;2022-07-23T05:07:41;18.70;67.10
42755;DHT22;28407;51.830;5.684;2022-07-23T05:09:42;18.60;67.20
42755;DHT22;28407;51.830;5.684;2022-07-23T05:11:43;18.70;67.40
42755;DHT22;28407;51.830;5.684;2022-07-23T05:13:44;18.70;67.50
42755;DHT22;28407;51.830;5.684;2022-07-23T05:15:45;18.70;67.60
42755;DHT22;28407;51.830;5.684;2022-07-23T05:17:45;18.70;67.70
42755;DHT22;28407;51.830;5.684;2022-07-23T05:19:50;18.70;67.70
42755;DHT22;28407;51.830;5.684;2022-07-23T05:21:51;18.80;67.70
42755;DHT22;28407;51.830;5.684;2022-07-23T05:23:51;18.80;67.70
42755;DHT22;28407;51.830;5.684;2022-07-23T05:25:52;18.80;67.70
42755;DHT22;28407;51.830;5.684;2022-07-23T05:27:53;18.80;67.80
42755;DHT22;28407;51.830;5.684;2022-07-23T05:29:54;18.80;67.80
42755;DHT22;28407;51.830;5.684;2022-07-23T05:31:55;18.80;67.80
42755;DHT22;28407;51.830;5.684;2022-07-23T05:33:56;18.80;67.90
42755;DHT22;28407;51.830;5.684;2022-07-23T05:36:01;18.80;67.90
42755;DHT22;28407;51.830;5.684;2022-07-23T05:38:03;18.90;68.10
42755;DHT22;28407;51.830;5.684;2022-07-23T05:40:07;18.90;68.10
42755;DHT22;28407;51.830;5.684;2022-07-23T05:42:08;18.90;68.10
42755;DHT22;28407;51.830;5.684;2022-07-23T05:44:09;18.90;68.10
42755;DHT22;28407;51.830;5.684;2022-07-23T05:46:13;18.90;68.20
42755;DHT22;28407;51.830;5.684;2022-07-23T05:48:16;18.90;68.30
42755;DHT22;28407;51.830;5.684;2022-07-23T05:50:29;18.90;68.30
42755;DHT22;28407;51.830;5.684;2022-07-23T05:52:35;18.90;68.40
42755;DHT22;28407;51.830;5.684;2022-07-23T05:55:08;19.00;68.50
42755;DHT22;28407;51.830;5.684;2022-07-23T05:57:09;19.00;68.50
42755;DHT22;28407;51.830;5.684;2022-07-23T05:59:10;19.00;68.50
42755;DHT22;28407;51.830;5.684;2022-07-23T06:01:12;19.00;68.50
42755;DHT22;28407;51.830;5.684;2022-07-23T06:03:20;19.00;68.90
42755;DHT22;28407;51.830;5.684;2022-07-23T06:05:21;19.10;68.70
42755;DHT22;28407;51.830;5.684;2022-07-23T06:07:21;19.10;68.70
42755;DHT22;28407;51.830;5.684;2022-07-23T06:09:22;19.10;68.70
42755;DHT22;28407;51.830;5.684;2022-07-23T06:11:23;19.10;68.70
42755;DHT22;28407;51.830;5.684;2022-07-23T06:13:24;19.20;68.70
42755;DHT22;28407;51.830;5.684;2022-07-23T06:15:25;19.20;68.70
42755;DHT22;28407;51.830;5.684;2022-07-23T06:17:26;19.20;68.70
42755;DHT22;28407;51.830;5.684;2022-07-23T06:19:27;19.20;68.70
42755;DHT22;28407;51.830;5.684;2022-07-23T06:21:28;19.20;68.70
42755;DHT22;28407;51.830;5.684;2022-07-23T06:23:31;19.30;68.80
42755;DHT22;28407;51.830;5.684;2022-07-23T06:25:32;19.30;68.70
42755;DHT22;28407;51.830;5.684;2022-07-23T06:27:33;19.30;68.70
42755;DHT22;28407;51.830;5.684;2022-07-23T06:29:33;19.30;68.70
42755;DHT22;28407;51.830;5.684;2022-07-23T06:31:34;19.30;68.60
42755;DHT22;28407;51.830;5.684;2022-07-23T06:33:35;19.40;68.60
42755;DHT22;28407;51.830;5.684;2022-07-23T06:35:35;19.40;68.50
42755;DHT22;28407;51.830;5.684;2022-07-23T06:37:36;19.40;68.50
42755;DHT22;28407;51.830;5.684;2022-07-23T06:39:37;19.40;68.50
42755;DHT22;28407;51.830;5.684;2022-07-23T06:41:38;19.40;68.40
42755;DHT22;28407;51.830;5.684;2022-07-23T06:43:38;19.40;68.40
42755;DHT22;28407;51.830;5.684;2022-07-23T06:45:42;19.50;68.40
42755;DHT22;28407;51.830;5.684;2022-07-23T06:47:44;19.50;68.40
42755;DHT22;28407;51.830;5.684;2022-07-23T06:49:45;19.60;68.40
42755;DHT22;28407;51.830;5.684;2022-07-23T06:51:46;19.60;68.30
42755;DHT22;28407;51.830;5.684;2022-07-23T06:53:46;19.60;68.10
42755;DHT22;28407;51.830;5.684;2022-07-23T06:55:47;19.70;68.20
42755;DHT22;28407;51.830;5.684;2022-07-23T06:57:48;19.70;68.10
42755;DHT22;28407;51.830;5.684;2022-07-23T06:59:48;19.70;67.90
42755;DHT22;28407;51.830;5.684;2022-07-23T07:01:49;19.80;67.70
42755;DHT22;28407;51.830;5.684;2022-07-23T07:03:50;19.80;67.50
42755;DHT22;28407;51.830;5.684;2022-07-23T07:05:51;19.80;67.40
42755;DHT22;28407;51.830;5.684;2022-07-23T07:07:54;19.80;67.30
42755;DHT22;28407;51.830;5.684;2022-07-23T07:09:55;19.90;67.20
42755;DHT22;28407;51.830;5.684;2022-07-23T07:11:56;19.90;67.10
42755;DHT22;28407;51.830;5.684;2022-07-23T07:13:57;19.90;66.90
42755;DHT22;28407;51.830;5.684;2022-07-23T07:15:57;20.00;66.90
42755;DHT22;28407;51.830;5.684;2022-07-23T07:17:58;19.90;66.70
42755;DHT22;28407;51.830;5.684;2022-07-23T07:19:58;20.00;66.70
42755;DHT22;28407;51.830;5.684;2022-07-23T07:21:59;20.10;66.70
42755;DHT22;28407;51.830;5.684;2022-07-23T07:24:00;20.00;66.50
42755;DHT22;28407;51.830;5.684;2022-07-23T07:26:00;20.10;66.50
42755;DHT22;28407;51.830;5.684;2022-07-23T07:28:01;20.10;66.40
42755;DHT22;28407;51.830;5.684;2022-07-23T07:30:03;20.10;66.20
42755;DHT22;28407;51.830;5.684;2022-07-23T07:32:05;20.20;66.10
42755;DHT22;28407;51.830;5.684;2022-07-23T07:34:06;20.10;66.00
42755;DHT22;28407;51.830;5.684;2022-07-23T07:36:07;20.20;66.00
42755;DHT22;28407;51.830;5.684;2022-07-23T07:38:07;20.20;65.90
42755;DHT22;28407;51.830;5.684;2022-07-23T07:40:08;20.30;65.80
42755;DHT22;28407;51.830;5.684;2022-07-23T07:42:09;20.30;65.60
42755;DHT22;28407;51.830;5.684;2022-07-23T07:44:10;20.30;65.50
42755;DHT22;28407;51.830;5.684;2022-07-23T07:46:10;20.30;65.50
42755;DHT22;28407;51.830;5.684;2022-07-23T07:48:11;20.30;65.40
42755;DHT22;28407;51.830;5.684;2022-07-23T07:50:12;20.30;65.20
42755;DHT22;28407;51.830;5.684;2022-07-23T07:52:12;20.40;65.20
42755;DHT22;28407;51.830;5.684;2022-07-23T07:54:13;20.30;65.20
42755;DHT22;28407;51.830;5.684;2022-07-23T07:56:14;20.40;65.20
42755;DHT22;28407;51.830;5.684;2022-07-23T07:58:14;20.40;65.20
42755;DHT22;28407;51.830;5.684;2022-07-23T08:00:16;20.40;65.10
42755;DHT22;28407;51.830;5.684;2022-07-23T08:02:16;20.40;65.00
42755;DHT22;28407;51.830;5.684;2022-07-23T08:04:17;20.50;64.90
42755;DHT22;28407;51.830;5.684;2022-07-23T08:06:18;20.60;64.80
42755;DHT22;28407;51.830;5.684;2022-07-23T08:08:19;20.60;64.60
42755;DHT22;28407;51.830;5.684;2022-07-23T08:10:19;20.60;64.50
42755;DHT22;28407;51.830;5.684;2022-07-23T08:12:20;20.60;64.40
42755;DHT22;28407;51.830;5.684;2022-07-23T08:14:21;20.60;64.20
42755;DHT22;28407;51.830;5.684;2022-07-23T08:16:22;20.60;64.20
42755;DHT22;28407;51.830;5.684;2022-07-23T08:18:22;20.70;64.20
42755;DHT22;28407;51.830;5.684;2022-07-23T08:20:24;20.70;64.10
42755;DHT22;28407;51.830;5.684;2022-07-23T08:22:25;20.70;64.00
42755;DHT22;28407;51.830;5.684;2022-07-23T08:24:25;20.70;64.00
42755;DHT22;28407;51.830;5.684;2022-07-23T08:26:26;20.70;63.90
42755;DHT22;28407;51.830;5.684;2022-07-23T08:28:27;20.70;63.90
42755;DHT22;28407;51.830;5.684;2022-07-23T08:30:29;20.80;63.90
42755;DHT22;28407;51.830;5.684;2022-07-23T08:32:30;20.80;63.70
42755;DHT22;28407;51.830;5.684;2022-07-23T08:34:31;20.90;63.70
42755;DHT22;28407;51.830;5.684;2022-07-23T08:36:31;20.90;63.50
42755;DHT22;28407;51.830;5.684;2022-07-23T08:38:34;20.90;63.40
42755;DHT22;28407;51.830;5.684;2022-07-23T08:40:38;20.90;63.40
42755;DHT22;28407;51.830;5.684;2022-07-23T08:42:39;21.00;63.30
42755;DHT22;28407;51.830;5.684;2022-07-23T08:44:45;21.00;63.30
42755;DHT22;28407;51.830;5.684;2022-07-23T08:46:47;21.00;63.20
42755;DHT22;28407;51.830;5.684;2022-07-23T08:48:49;21.00;63.20
42755;DHT22;28407;51.830;5.684;2022-07-23T08:50:51;21.00;63.20
42755;DHT22;28407;51.830;5.684;2022-07-23T08:52:53;21.00;63.20
42755;DHT22;28407;51.830;5.684;2022-07-23T08:54:55;21.00;63.10
42755;DHT22;28407;51.830;5.684;2022-07-23T08:56:56;21.10;63.10
42755;DHT22;28407;51.830;5.684;2022-07-23T08:58:57;21.10;63.00
42755;DHT22;28407;51.830;5.684;2022-07-23T09:00:58;21.20;63.00
42755;DHT22;28407;51.830;5.684;2022-07-23T09:02:59;21.20;62.80
42755;DHT22;28407;51.830;5.684;2022-07-23T09:05:00;21.30;63.40
42755;DHT22;28407;51.830;5.684;2022-07-23T09:07:02;21.30;62.50
42755;DHT22;28407;51.830;5.684;2022-07-23T09:09:15;21.30;62.40
42755;DHT22;28407;51.830;5.684;2022-07-23T09:11:17;21.40;62.40
42755;DHT22;28407;51.830;5.684;2022-07-23T09:13:28;21.40;62.30
42755;DHT22;28407;51.830;5.684;2022-07-23T09:15:29;21.40;62.10
42755;DHT22;28407;51.830;5.684;2022-07-23T09:17:40;21.50;62.00
42755;DHT22;28407;51.830;5.684;2022-07-23T09:19:42;21.50;61.70
42755;DHT22;28407;51.830;5.684;2022-07-23T09:21:43;21.50;61.60
42755;DHT22;28407;51.830;5.684;2022-07-23T09:23:59;21.60;61.60
42755;DHT22;28407;51.830;5.684;2022-07-23T09:26:02;21.60;61.50
42755;DHT22;28407;51.830;5.684;2022-07-23T09:28:03;21.60;61.30
42755;DHT22;28407;51.830;5.684;2022-07-23T09:30:05;21.70;61.20
42755;DHT22;28407;51.830;5.684;2022-07-23T09:32:06;21.80;61.10
42755;DHT22;28407;51.830;5.684;2022-07-23T09:34:27;21.80;60.90
42755;DHT22;28407;51.830;5.684;2022-07-23T09:36:29;21.80;60.70
42755;DHT22;28407;51.830;5.684;2022-07-23T09:38:30;21.90;60.60
42755;DHT22;28407;51.830;5.684;2022-07-23T09:40:30;21.90;60.40
42755;DHT22;28407;51.830;5.684;2022-07-23T09:42:31;22.00;60.30
42755;DHT22;28407;51.830;5.684;2022-07-23T09:44:41;22.10;60.20
42755;DHT22;28407;51.830;5.684;2022-07-23T09:46:43;22.20;60.10
42755;DHT22;28407;51.830;5.684;2022-07-23T09:48:44;22.30;60.00
42755;DHT22;28407;51.830;5.684;2022-07-23T09:50:45;22.30;59.70
42755;DHT22;28407;51.830;5.684;2022-07-23T09:52:47;22.40;59.50
42755;DHT22;28407;51.830;5.684;2022-07-23T09:54:57;22.40;59.30
42755;DHT22;28407;51.830;5.684;2022-07-23T09:57:02;22.50;59.20
42755;DHT22;28407;51.830;5.684;2022-07-23T09:59:04;22.50;59.10
42755;DHT22;28407;51.830;5.684;2022-07-23T10:01:07;22.60;59.00
42755;DHT22;28407;51.830;5.684;2022-07-23T10:03:08;22.60;58.90
42755;DHT22;28407;51.830;5.684;2022-07-23T10:05:15;22.70;58.80
42755;DHT22;28407;51.830;5.684;2022-07-23T10:07:46;22.80;58.70
42755;DHT22;28407;51.830;5.684;2022-07-23T10:10:14;22.80;58.60
42755;DHT22;28407;51.830;5.684;2022-07-23T10:12:43;22.80;58.50
42755;DHT22;28407;51.830;5.684;2022-07-23T10:15:17;22.90;58.40
42755;DHT22;28407;51.830;5.684;2022-07-23T10:17:18;23.00;58.30
42755;DHT22;28407;51.830;5.684;2022-07-23T10:19:19;23.00;58.20
42755;DHT22;28407;51.830;5.684;2022-07-23T10:21:46;23.10;58.10
42755;DHT22;28407;51.830;5.684;2022-07-23T10:24:10;23.20;58.00
42755;DHT22;28407;51.830;5.684;2022-07-23T10:26:19;23.20;57.70
42755;DHT22;28407;51.830;5.684;2022-07-23T10:28:30;23.30;57.70
42755;DHT22;28407;51.830;5.684;2022-07-23T10:30:49;23.30;57.60
42755;DHT22;28407;51.830;5.684;2022-07-23T10:35:31;23.50;57.20
42755;DHT22;28407;51.830;5.684;2022-07-23T10:37:42;23.60;57.10
42755;DHT22;28407;51.830;5.684;2022-07-23T10:39:44;23.70;57.00
42755;DHT22;28407;51.830;5.684;2022-07-23T10:41:44;23.80;56.90
42755;DHT22;28407;51.830;5.684;2022-07-23T10:44:05;23.80;56.70
42755;DHT22;28407;51.830;5.684;2022-07-23T10:46:24;23.90;56.40
42755;DHT22;28407;51.830;5.684;2022-07-23T10:48:45;24.00;56.30
42755;DHT22;28407;51.830;5.684;2022-07-23T10:51:14;24.00;56.20
42755;DHT22;28407;51.830;5.684;2022-07-23T10:53:16;24.10;56.10
42755;DHT22;28407;51.830;5.684;2022-07-23T10:57:27;24.10;56.00
42755;DHT22;28407;51.830;5.684;2022-07-23T10:59:28;24.20;56.00
42755;DHT22;28407;51.830;5.684;2022-07-23T11:01:37;24.20;55.80
42755;DHT22;28407;51.830;5.684;2022-07-23T11:03:38;24.40;55.80
42755;DHT22;28407;51.830;5.684;2022-07-23T11:05:44;24.40;55.60
42755;DHT22;28407;51.830;5.684;2022-07-23T11:10:04;24.60;55.10
42755;DHT22;28407;51.830;5.684;2022-07-23T11:12:31;24.60;55.00
42755;DHT22;28407;51.830;5.684;2022-07-23T11:16:58;24.80;54.50
42755;DHT22;28407;51.830;5.684;2022-07-23T11:19:02;24.90;54.40
42755;DHT22;28407;51.830;5.684;2022-07-23T11:25:56;25.20;53.70
42755;DHT22;28407;51.830;5.684;2022-07-23T11:28:17;25.30;53.60
42755;DHT22;28407;51.830;5.684;2022-07-23T11:30:38;25.50;53.30
42755;DHT22;28407;51.830;5.684;2022-07-23T11:32:40;25.60;53.00
42755;DHT22;28407;51.830;5.684;2022-07-23T11:34:41;25.70;52.90
42755;DHT22;28407;51.830;5.684;2022-07-23T11:36:50;25.80;52.90
42755;DHT22;28407;51.830;5.684;2022-07-23T11:38:51;25.90;52.70
42755;DHT22;28407;51.830;5.684;2022-07-23T11:40:53;25.90;52.60
42755;DHT22;28407;51.830;5.684;2022-07-23T11:43:00;25.90;52.70
42755;DHT22;28407;51.830;5.684;2022-07-23T11:45:01;26.00;52.70
42755;DHT22;28407;51.830;5.684;2022-07-23T11:47:04;26.00;52.60
42755;DHT22;28407;51.830;5.684;2022-07-23T11:49:05;26.10;52.40
42755;DHT22;28407;51.830;5.684;2022-07-23T11:51:06;26.20;52.40
42755;DHT22;28407;51.830;5.684;2022-07-23T11:53:07;26.30;52.20
42755;DHT22;28407;51.830;5.684;2022-07-23T11:55:11;26.40;52.00
42755;DHT22;28407;51.830;5.684;2022-07-23T11:57:11;26.40;51.70
42755;DHT22;28407;51.830;5.684;2022-07-23T11:59:12;26.60;51.40
42755;DHT22;28407;51.830;5.684;2022-07-23T12:01:13;26.60;51.00
42755;DHT22;28407;51.830;5.684;2022-07-23T12:03:14;26.80;51.00
42755;DHT22;28407;51.830;5.684;2022-07-23T12:05:17;26.90;50.70
42755;DHT22;28407;51.830;5.684;2022-07-23T12:09:31;27.10;50.10
42755;DHT22;28407;51.830;5.684;2022-07-23T12:11:31;27.20;49.90
42755;DHT22;28407;51.830;5.684;2022-07-23T12:13:32;27.20;49.80
42755;DHT22;28407;51.830;5.684;2022-07-23T12:15:36;27.20;49.70
42755;DHT22;28407;51.830;5.684;2022-07-23T12:17:43;27.40;49.70
42755;DHT22;28407;51.830;5.684;2022-07-23T12:19:44;27.40;49.50
42755;DHT22;28407;51.830;5.684;2022-07-23T12:21:44;27.60;49.30
42755;DHT22;28407;51.830;5.684;2022-07-23T12:23:48;27.70;49.00
42755;DHT22;28407;51.830;5.684;2022-07-23T12:25:50;27.80;48.80
42755;DHT22;28407;51.830;5.684;2022-07-23T12:28:06;27.90;48.80
42755;DHT22;28407;51.830;5.684;2022-07-23T12:30:26;28.00;48.60
42755;DHT22;28407;51.830;5.684;2022-07-23T12:32:28;28.10;48.40
42755;DHT22;28407;51.830;5.684;2022-07-23T12:34:29;28.20;48.20
42755;DHT22;28407;51.830;5.684;2022-07-23T12:36:39;28.30;47.90
42755;DHT22;28407;51.830;5.684;2022-07-23T12:38:46;28.50;47.60
42755;DHT22;28407;51.830;5.684;2022-07-23T12:40:57;28.60;47.30
42755;DHT22;28407;51.830;5.684;2022-07-23T12:43:04;28.80;47.00
42755;DHT22;28407;51.830;5.684;2022-07-23T12:45:10;28.90;47.10
42755;DHT22;28407;51.830;5.684;2022-07-23T12:47:11;29.00;46.70
42755;DHT22;28407;51.830;5.684;2022-07-23T12:49:25;29.10;46.70
42755;DHT22;28407;51.830;5.684;2022-07-23T12:51:27;29.20;46.00
42755;DHT22;28407;51.830;5.684;2022-07-23T12:53:33;29.20;45.90
42755;DHT22;28407;51.830;5.684;2022-07-23T12:55:37;29.30;45.80
42755;DHT22;28407;51.830;5.684;2022-07-23T12:57:45;29.30;45.60
42755;DHT22;28407;51.830;5.684;2022-07-23T12:59:45;29.40;45.70
42755;DHT22;28407;51.830;5.684;2022-07-23T13:01:55;29.40;45.60
42755;DHT22;28407;51.830;5.684;2022-07-23T13:04:12;29.50;45.40
42755;DHT22;28407;51.830;5.684;2022-07-23T13:06:13;29.60;45.50
42755;DHT22;28407;51.830;5.684;2022-07-23T13:08:13;29.70;45.40
42755;DHT22;28407;51.830;5.684;2022-07-23T13:10:14;29.80;45.20
42755;DHT22;28407;51.830;5.684;2022-07-23T13:12:15;29.90;45.00
42755;DHT22;28407;51.830;5.684;2022-07-23T13:14:17;29.90;44.70